createdAt,value
2023-03-06T00:01:20.336Z,27.31
2023-03-06T00:03:52.779Z,26.11
2023-03-06T00:06:24.403Z,26.35
2023-03-06T00:08:56.037Z,26.96
2023-03-06T00:11:27.790Z,25.87
2023-03-06T00:13:59.359Z,25.23
2023-03-06T00:16:30.973Z,26.46
2023-03-06T00:19:02.640Z,25.32
2023-03-06T00:21:34.264Z,25.16
2023-03-06T00:24:06.054Z,25.14
2023-03-06T00:26:37.668Z,25.40
2023-03-06T00:29:09.376Z,25.02
2023-03-06T00:31:41.960Z,25.36
2023-03-06T00:34:14.418Z,25.89
2023-03-06T00:36:46.106Z,25.69
2023-03-06T00:39:17.794Z,24.60
2023-03-06T00:41:49.407Z,25.35
2023-03-06T00:44:21.164Z,24.93
2023-03-06T00:46:52.819Z,25.10
2023-03-06T00:49:24.457Z,25.47
2023-03-06T00:51:56.058Z,25.67
2023-03-06T00:54:27.661Z,24.56
2023-03-06T00:56:59.363Z,25.66
2023-03-06T00:59:30.998Z,24.86
2023-03-06T01:02:02.980Z,24.64
2023-03-06T01:04:34.860Z,25.22
2023-03-06T01:07:06.481Z,25.35
2023-03-06T01:09:38.387Z,25.52
2023-03-06T01:12:10.197Z,27.29
2023-03-06T01:14:41.909Z,26.25
2023-03-06T01:17:14.519Z,26.56
2023-03-06T01:19:48.031Z,26.41
2023-03-06T01:22:21.347Z,26.66
2023-03-06T01:24:53.607Z,27.12
2023-03-06T01:27:26.285Z,26.20
2023-03-06T01:29:58.012Z,27.00
2023-03-06T01:32:29.887Z,27.09
2023-03-06T01:35:01.637Z,25.80
2023-03-06T01:37:35.555Z,25.95
2023-03-06T01:40:10.708Z,25.39
2023-03-06T01:42:43.177Z,24.69
2023-03-06T01:45:14.793Z,25.78
2023-03-06T01:47:46.748Z,25.32
2023-03-06T01:50:18.567Z,24.84
2023-03-06T01:52:59.523Z,24.26
2023-03-06T01:55:34.942Z,25.02
2023-03-06T01:58:12.646Z,25.27
2023-03-06T02:00:44.554Z,26.53
2023-03-06T02:03:23.370Z,26.77
2023-03-06T02:05:56.130Z,25.79
2023-03-06T02:08:30.009Z,25.56
2023-03-06T02:11:01.736Z,26.00
2023-03-06T02:13:35.193Z,26.06
2023-03-06T02:16:08.551Z,25.37
2023-03-06T02:18:42.732Z,25.69
2023-03-06T02:21:26.795Z,26.79
2023-03-06T02:24:24.686Z,25.31
2023-03-06T02:26:59.042Z,26.02
2023-03-06T02:29:31.777Z,26.60
2023-03-06T02:32:07.262Z,25.34
2023-03-06T02:34:39.276Z,26.42
2023-03-06T02:37:11.434Z,26.30
2023-03-06T02:39:50.104Z,24.92
2023-03-06T02:42:26.387Z,26.11
2023-03-06T02:45:03.282Z,25.96
2023-03-06T02:47:34.958Z,27.30
2023-03-06T02:50:06.939Z,25.01
2023-03-06T02:52:38.500Z,27.49
2023-03-06T02:55:10.639Z,27.41
2023-03-06T02:57:42.489Z,26.65
2023-03-06T03:00:15.372Z,27.49
2023-03-06T03:02:48.278Z,29.09
2023-03-06T03:05:20.736Z,29.26
2023-03-06T03:07:58.873Z,29.37
2023-03-06T03:10:32.453Z,28.61
2023-03-06T03:13:04.450Z,28.62
2023-03-06T03:15:38.328Z,29.62
2023-03-06T03:18:11.448Z,28.43
2023-03-06T03:20:43.097Z,29.87
2023-03-06T03:23:14.786Z,28.92
2023-03-06T03:25:46.445Z,28.14
2023-03-06T03:28:19.389Z,28.84
2023-03-06T03:30:51.586Z,30.05
2023-03-06T03:33:23.234Z,30.62
2023-03-06T03:35:59.903Z,29.35
2023-03-06T03:38:32.253Z,30.19
2023-03-06T03:41:04.849Z,29.18
2023-03-06T03:43:36.733Z,29.74
2023-03-06T03:46:08.625Z,28.84
2023-03-06T03:48:40.497Z,28.96
2023-03-06T03:51:13.954Z,30.23
2023-03-06T03:53:50.392Z,29.48
2023-03-06T03:56:26.054Z,28.91
2023-03-06T03:59:04.179Z,29.88
2023-03-06T04:01:42.521Z,29.46
2023-03-06T04:04:14.231Z,31.00
2023-03-06T04:06:48.187Z,29.34
2023-03-06T04:09:22.759Z,29.83
2023-03-06T04:11:55.097Z,30.89
2023-03-06T04:14:27.165Z,31.37
2023-03-06T04:16:59.267Z,31.06
2023-03-06T04:19:31.035Z,31.48
2023-03-06T04:22:03.273Z,31.75
2023-03-06T04:24:37.037Z,32.30
2023-03-06T04:27:08.753Z,32.24
2023-03-06T04:29:40.359Z,32.41
2023-03-06T04:32:12.117Z,32.87
2023-03-06T04:34:44.590Z,31.08
2023-03-06T04:37:22.261Z,32.46
2023-03-06T04:39:54.734Z,32.93
2023-03-06T04:42:28.517Z,32.39
2023-03-06T04:45:00.985Z,34.31
2023-03-06T04:47:32.661Z,34.14
2023-03-06T04:50:05.396Z,32.69
2023-03-06T04:52:37.208Z,32.55
2023-03-06T04:55:12.230Z,32.70
2023-03-06T04:57:45.935Z,31.99
2023-03-06T05:00:22.248Z,31.94
2023-03-06T05:02:54.142Z,34.08
2023-03-06T05:05:26.604Z,33.63
2023-03-06T05:07:58.445Z,34.37
2023-03-06T05:10:30.168Z,32.87
2023-03-06T05:13:01.957Z,33.69
2023-03-06T05:15:33.637Z,33.93
2023-03-06T05:18:05.431Z,33.27
2023-03-06T05:20:37.112Z,33.84
2023-03-06T05:23:09.160Z,33.80
2023-03-06T05:25:42.213Z,33.54
2023-03-06T05:28:13.882Z,34.58
2023-03-06T05:30:46.146Z,35.03
2023-03-06T05:33:18.359Z,36.50
2023-03-06T05:35:51.107Z,35.76
2023-03-06T05:38:22.826Z,35.69
2023-03-06T05:40:54.768Z,35.00
2023-03-06T05:43:26.488Z,35.18
2023-03-06T05:46:03.777Z,35.38
2023-03-06T05:48:35.838Z,36.87
2023-03-06T05:51:07.836Z,36.38
2023-03-06T05:53:40.181Z,35.86
2023-03-06T05:56:11.941Z,35.57
2023-03-06T05:58:43.770Z,35.57
2023-03-06T06:01:18.888Z,35.33
2023-03-06T06:03:51.091Z,36.84
2023-03-06T06:06:22.973Z,36.17
2023-03-06T06:08:54.688Z,36.22
2023-03-06T06:11:28.360Z,34.60
2023-03-06T06:14:00.392Z,36.20
2023-03-06T06:16:32.292Z,35.97
2023-03-06T06:19:04.178Z,33.75
2023-03-06T06:21:35.957Z,33.45
2023-03-06T06:24:07.608Z,33.45
2023-03-06T06:26:39.755Z,34.35
2023-03-06T06:29:13.384Z,35.32
2023-03-06T06:31:45.364Z,36.06
2023-03-06T06:34:16.996Z,37.85
2023-03-06T06:36:51.622Z,35.84
2023-03-06T06:39:25.227Z,35.77
2023-03-06T06:42:14.712Z,34.38
2023-03-06T06:44:48.594Z,34.86
2023-03-06T06:47:24.037Z,33.81
2023-03-06T06:49:57.285Z,34.17
2023-03-06T06:52:28.904Z,33.86
2023-03-06T06:55:00.569Z,37.43
2023-03-06T06:57:32.270Z,35.56
2023-03-06T07:00:05.749Z,36.34
2023-03-06T07:02:37.364Z,36.96
2023-03-06T07:05:09.641Z,35.36
2023-03-06T07:07:41.588Z,37.07
2023-03-06T07:10:15.615Z,34.59
2023-03-06T07:12:47.364Z,35.23
2023-03-06T07:15:19.056Z,34.59
2023-03-06T07:17:50.770Z,35.30
2023-03-06T07:20:22.779Z,35.23
2023-03-06T07:22:54.505Z,36.06
2023-03-06T07:25:26.151Z,35.88
2023-03-06T07:27:58.036Z,36.74
2023-03-06T07:30:30.572Z,35.42
2023-03-06T07:33:02.433Z,34.63
2023-03-06T07:35:34.128Z,34.50
2023-03-06T07:38:05.859Z,35.52
2023-03-06T07:40:38.319Z,34.62
2023-03-06T07:43:19.022Z,36.35
2023-03-06T07:46:00.032Z,38.53
2023-03-06T07:48:31.828Z,38.90
2023-03-06T07:51:12.899Z,39.16
2023-03-06T07:53:44.848Z,38.50
2023-03-06T07:56:18.018Z,39.56
2023-03-06T07:58:50.649Z,39.50
2023-03-06T08:01:22.548Z,38.29
2023-03-06T08:03:54.516Z,36.71
2023-03-06T08:06:27.868Z,36.66
2023-03-06T08:09:00.457Z,36.24
2023-03-06T08:11:32.226Z,37.14
2023-03-06T08:14:03.991Z,37.49
2023-03-06T08:16:35.950Z,36.21
2023-03-06T08:19:08.016Z,35.85
2023-03-06T08:21:42.378Z,37.60
2023-03-06T08:24:14.109Z,36.30
2023-03-06T08:26:46.432Z,36.30
2023-03-06T08:29:18.184Z,35.49
2023-03-06T08:31:50.169Z,35.32
2023-03-06T08:34:26.747Z,34.88
2023-03-06T08:36:58.489Z,35.58
2023-03-06T08:39:30.250Z,34.90
2023-03-06T08:42:02.140Z,34.73
2023-03-06T08:44:35.257Z,35.59
2023-03-06T08:47:07.292Z,34.71
2023-03-06T08:49:39.256Z,35.59
2023-03-06T08:52:11.692Z,37.33
2023-03-06T08:54:43.537Z,38.39
2023-03-06T08:57:15.306Z,38.82
2023-03-06T08:59:46.996Z,37.91
2023-03-06T09:02:18.750Z,38.53
2023-03-06T09:04:50.808Z,38.01
2023-03-06T09:07:22.529Z,37.99
2023-03-06T09:09:57.972Z,37.74
2023-03-06T09:12:32.667Z,37.02
2023-03-06T09:15:09.678Z,37.44
2023-03-06T09:17:41.722Z,37.75
2023-03-06T09:20:16.283Z,37.50
2023-03-06T09:22:48.455Z,37.09
2023-03-06T09:25:20.285Z,37.50
2023-03-06T09:28:08.636Z,38.15
2023-03-06T09:30:42.886Z,39.57
2023-03-06T09:33:15.345Z,38.84
2023-03-06T09:35:52.143Z,39.99
2023-03-06T09:38:26.978Z,40.02
2023-03-06T09:40:58.593Z,38.72
2023-03-06T09:43:42.733Z,39.04
2023-03-06T09:46:44.905Z,39.85
2023-03-06T09:49:35.306Z,40.60
2023-03-06T09:52:34.209Z,39.11
2023-03-06T09:55:25.583Z,40.15
2023-03-06T09:58:13.931Z,39.91
2023-03-06T10:01:02.829Z,38.48
2023-03-06T10:03:45.167Z,38.92
2023-03-06T10:06:37.165Z,38.89
2023-03-06T10:09:35.487Z,38.51
2023-03-06T10:12:16.767Z,39.20
2023-03-06T10:14:57.886Z,38.17
2023-03-06T10:17:36.090Z,39.83
2023-03-06T10:21:00.931Z,39.48
2023-03-06T10:23:54.444Z,38.85
2023-03-06T10:26:36.629Z,38.58
2023-03-06T10:29:40.165Z,38.70
2023-03-06T10:32:30.546Z,39.10
2023-03-06T10:35:19.093Z,40.36
2023-03-06T10:37:51.289Z,39.34
2023-03-06T10:40:34.612Z,40.67
2023-03-06T10:43:12.528Z,40.97
2023-03-06T10:45:49.989Z,40.49
2023-03-06T10:48:26.064Z,40.32
2023-03-06T10:51:18.519Z,41.84
2023-03-06T10:54:03.521Z,40.93
2023-03-06T10:56:38.785Z,40.87
2023-03-06T10:59:18.155Z,41.19
2023-03-06T11:01:54.575Z,40.61
2023-03-06T11:04:36.370Z,41.55
2023-03-06T11:07:22.814Z,40.60
2023-03-06T11:09:57.576Z,41.54
2023-03-06T11:12:33.633Z,41.62
2023-03-06T11:15:15.557Z,39.61
2023-03-06T11:18:00.849Z,38.87
2023-03-06T11:20:51.615Z,39.92
2023-03-06T11:23:29.978Z,40.99
2023-03-06T11:26:16.923Z,39.60
2023-03-06T11:28:57.337Z,41.46
2023-03-06T11:31:34.831Z,40.70
2023-03-06T11:34:18.184Z,40.92
2023-03-06T11:37:00.369Z,40.82
2023-03-06T11:39:39.564Z,41.20
2023-03-06T11:46:02.030Z,40.76
2023-03-06T11:48:54.321Z,41.81
2023-03-06T11:51:33.188Z,41.16
2023-03-06T11:54:04.892Z,39.79
2023-03-06T11:56:45.399Z,39.97
2023-03-06T11:59:25.890Z,39.44
2023-03-06T12:02:00.529Z,38.74
2023-03-06T12:05:06.654Z,36.34
2023-03-06T12:07:55.946Z,38.39
2023-03-06T12:10:52.460Z,37.26
2023-03-06T12:13:36.593Z,39.89
2023-03-06T12:16:30.060Z,40.48
2023-03-06T12:19:23.618Z,38.51
2023-03-06T12:22:31.292Z,38.69
2023-03-06T12:25:28.111Z,38.34
2023-03-06T12:28:19.960Z,39.21
2023-03-06T12:31:07.712Z,39.01
2023-03-06T12:33:53.354Z,40.83
2023-03-06T12:36:51.445Z,39.82
2023-03-06T12:39:35.260Z,42.66
2023-03-06T12:42:23.072Z,41.42
2023-03-06T12:45:01.160Z,41.42
2023-03-06T12:47:42.288Z,42.23
2023-03-06T12:50:23.975Z,41.29
2023-03-06T12:53:02.250Z,42.03
2023-03-06T12:55:50.553Z,41.47
2023-03-06T12:58:28.150Z,41.32
2023-03-06T13:01:04.544Z,41.00
2023-03-06T13:04:11.375Z,40.99
2023-03-06T13:06:58.245Z,40.34
2023-03-06T13:09:35.978Z,40.26
2023-03-06T13:12:39.956Z,41.83
2023-03-06T13:15:46.398Z,41.18
2023-03-06T13:18:23.761Z,41.44
2023-03-06T13:20:56.661Z,40.78
2023-03-06T13:23:34.302Z,41.11
2023-03-06T13:26:08.641Z,41.23
2023-03-06T13:28:44.194Z,41.41
2023-03-06T13:31:29.393Z,39.96
2023-03-06T13:34:24.029Z,41.86
2023-03-06T13:37:18.092Z,41.49
2023-03-06T13:39:55.810Z,41.81
2023-03-06T13:42:37.121Z,41.54
2023-03-06T13:45:16.883Z,41.08
2023-03-06T13:48:15.568Z,41.02
2023-03-06T13:50:46.899Z,41.64
2023-03-06T13:53:49.283Z,41.11
2023-03-06T13:56:53.482Z,40.27
2023-03-06T13:59:54.393Z,40.09
2023-03-06T14:02:47.385Z,40.00
2023-03-06T14:05:20.107Z,39.62
2023-03-06T14:08:30.304Z,40.59
2023-03-06T14:11:05.879Z,39.45
2023-03-06T14:13:49.434Z,39.96
2023-03-06T14:16:32.675Z,39.04
2023-03-06T14:19:18.666Z,38.55
2023-03-06T14:21:57.845Z,38.02
2023-03-06T14:24:41.422Z,38.01
2023-03-06T14:27:19.243Z,36.47
2023-03-06T14:29:51.023Z,36.58
2023-03-06T14:32:24.171Z,35.90
2023-03-06T14:34:56.604Z,36.47
2023-03-06T14:37:28.402Z,36.48
2023-03-06T14:40:00.177Z,37.42
2023-03-06T14:42:31.908Z,37.93
2023-03-06T14:45:19.101Z,38.05
2023-03-06T14:47:52.883Z,38.17
2023-03-06T14:50:25.906Z,37.26
2023-03-06T14:53:15.791Z,34.02
2023-03-06T14:55:57.061Z,31.05
2023-03-06T14:58:44.725Z,29.42
2023-03-06T15:01:26.489Z,28.11
2023-03-06T15:04:00.922Z,28.16
2023-03-06T15:06:39.845Z,29.15
2023-03-06T15:09:20.483Z,30.69
2023-03-06T15:11:55.210Z,37.15
2023-03-06T15:14:39.981Z,38.01
2023-03-06T15:17:15.782Z,33.40
2023-03-06T15:19:49.965Z,31.04
2023-03-06T15:22:26.736Z,29.25
2023-03-06T15:25:24.804Z,28.40
2023-03-06T15:28:00.139Z,26.17
2023-03-06T15:30:36.922Z,23.75
2023-03-06T15:33:26.589Z,24.51
2023-03-06T15:36:02.386Z,23.05
2023-03-06T15:38:41.701Z,25.23
2023-03-06T15:41:27.750Z,24.31
2023-03-06T15:44:02.630Z,23.71
2023-03-06T15:46:35.072Z,25.38
2023-03-06T15:49:16.524Z,21.47
2023-03-06T15:51:48.144Z,18.97
2023-03-06T15:54:19.984Z,17.43
2023-03-06T15:56:51.643Z,14.60
2023-03-06T15:59:28.392Z,19.07
2023-03-06T16:02:13.787Z,21.87
2023-03-06T16:04:46.319Z,18.56
2023-03-06T16:07:23.716Z,10.64
2023-03-06T16:09:55.566Z,9.90
2023-03-06T16:12:30.274Z,10.06
2023-03-06T16:15:02.121Z,10.10
2023-03-06T16:17:36.926Z,10.62
2023-03-06T16:20:14.973Z,9.99
2023-03-06T16:22:49.227Z,9.88
2023-03-06T16:25:24.372Z,9.98
2023-03-06T16:27:59.143Z,10.67
2023-03-06T16:30:33.390Z,11.26
2023-03-06T16:33:05.525Z,10.81
2023-03-06T16:35:37.204Z,10.43
2023-03-06T16:38:10.591Z,10.25
2023-03-06T16:40:43.288Z,9.95
2023-03-06T16:43:16.285Z,10.15
2023-03-06T16:45:47.946Z,10.54
2023-03-06T16:48:19.574Z,12.00
2023-03-06T16:50:51.175Z,12.15
2023-03-06T16:53:22.872Z,12.05
2023-03-06T16:55:54.532Z,12.76
2023-03-06T16:58:26.142Z,12.98
2023-03-06T17:00:57.795Z,13.10
2023-03-06T17:03:29.430Z,13.83
2023-03-06T17:06:04.123Z,13.55
2023-03-06T17:08:35.765Z,13.70
2023-03-06T17:11:07.841Z,13.25
2023-03-06T17:13:39.956Z,14.25
2023-03-06T17:16:13.701Z,13.91
2023-03-06T17:18:46.056Z,13.30
2023-03-06T17:21:17.649Z,12.80
2023-03-06T17:23:49.250Z,13.18
2023-03-06T17:26:20.945Z,13.50
2023-03-06T17:28:52.694Z,13.43
2023-03-06T17:31:27.148Z,13.41
2023-03-06T17:33:58.788Z,12.88
2023-03-06T17:36:31.526Z,12.85
2023-03-06T17:39:03.665Z,12.89
2023-03-06T17:41:35.484Z,12.48
2023-03-06T17:44:07.121Z,11.51
2023-03-06T17:46:38.793Z,11.68
2023-03-06T17:49:10.524Z,11.41
2023-03-06T17:51:42.250Z,12.40
2023-03-06T17:54:13.898Z,10.82
2023-03-06T17:56:45.577Z,10.38
2023-03-06T17:59:17.166Z,10.75
2023-03-06T18:02:11.046Z,10.42
2023-03-06T18:04:43.021Z,11.04
2023-03-06T18:07:14.779Z,11.59
2023-03-06T18:09:46.500Z,11.35
2023-03-06T18:12:18.132Z,11.38
2023-03-06T18:14:49.725Z,11.58
2023-03-06T18:17:21.571Z,11.17
2023-03-06T18:19:53.235Z,11.46
2023-03-06T18:22:24.967Z,11.61
2023-03-06T18:24:56.631Z,12.00
2023-03-06T18:27:28.351Z,11.26
2023-03-06T18:30:00.200Z,12.15
2023-03-06T18:32:31.975Z,11.67
2023-03-06T18:35:04.141Z,11.21
2023-03-06T18:37:35.902Z,11.52
2023-03-06T18:40:08.852Z,12.53
2023-03-06T18:42:40.741Z,12.55
2023-03-06T18:45:12.522Z,11.91
2023-03-06T18:47:44.413Z,11.85
2023-03-06T18:50:16.262Z,12.11
2023-03-06T18:52:47.890Z,12.30
2023-03-06T18:55:19.539Z,12.31
2023-03-06T18:57:51.279Z,12.11
2023-03-06T19:00:23.400Z,11.82
2023-03-06T19:02:55.804Z,12.20
2023-03-06T19:05:28.204Z,11.97
2023-03-06T19:08:00.336Z,12.12
2023-03-06T19:10:39.808Z,12.43
2023-03-06T19:13:12.282Z,12.51
2023-03-06T19:15:49.179Z,12.45
2023-03-06T19:18:20.972Z,13.31
2023-03-06T19:20:52.733Z,13.82
2023-03-06T19:23:24.656Z,13.73
2023-03-06T19:25:57.421Z,14.32
2023-03-06T19:28:30.220Z,14.71
2023-03-06T19:31:28.414Z,14.09
2023-03-06T19:34:00.442Z,14.52
2023-03-06T19:36:33.907Z,14.42
2023-03-06T19:39:08.206Z,14.66
2023-03-06T19:41:40.700Z,14.47
2023-03-06T19:44:12.672Z,13.68
2023-03-06T19:46:44.342Z,14.13
2023-03-06T19:49:16.773Z,14.55
2023-03-06T19:51:48.495Z,14.69
2023-03-06T19:54:20.219Z,15.16
2023-03-06T19:56:51.938Z,14.57
2023-03-06T19:59:23.852Z,14.57
2023-03-06T20:01:55.661Z,14.38
2023-03-06T20:04:30.648Z,13.94
2023-03-06T20:07:02.421Z,14.31
2023-03-06T20:09:34.069Z,13.95
2023-03-06T20:12:08.147Z,14.02
2023-03-06T20:14:40.567Z,13.86
2023-03-06T20:17:12.225Z,14.00
2023-03-06T20:19:44.173Z,13.53
2023-03-06T20:22:15.796Z,13.88
2023-03-06T20:24:47.437Z,14.39
2023-03-06T20:27:19.312Z,14.45
2023-03-06T20:29:51.047Z,13.66
2023-03-06T20:32:22.632Z,14.24
2023-03-06T20:34:54.257Z,14.36
2023-03-06T20:37:25.974Z,13.95
2023-03-06T20:39:57.572Z,14.44
2023-03-06T20:42:29.134Z,14.70
2023-03-06T20:45:00.808Z,15.04
2023-03-06T20:47:32.453Z,14.63
2023-03-06T20:50:04.452Z,15.36
2023-03-06T20:52:36.102Z,15.71
2023-03-06T20:55:08.126Z,15.32
2023-03-06T20:57:40.030Z,14.58
2023-03-06T21:00:12.093Z,15.24
2023-03-06T21:02:43.766Z,14.34
2023-03-06T21:05:15.509Z,14.13
2023-03-06T21:07:47.888Z,15.88
2023-03-06T21:10:19.441Z,14.95
2023-03-06T21:12:51.150Z,15.27
2023-03-06T21:15:22.790Z,14.12
2023-03-06T21:17:54.458Z,15.11
2023-03-06T21:20:26.166Z,14.95
2023-03-06T21:22:57.827Z,14.28
2023-03-06T21:25:29.751Z,14.83
2023-03-06T21:28:01.494Z,15.24
2023-03-06T21:30:34.362Z,15.12
2023-03-06T21:33:05.932Z,14.88
2023-03-06T21:35:41.690Z,14.79
2023-03-06T21:38:13.916Z,14.67
2023-03-06T21:40:45.982Z,14.96
2023-03-06T21:43:17.790Z,14.22
2023-03-06T21:45:49.845Z,13.82
2023-03-06T21:48:21.725Z,14.56
2023-03-06T21:51:02.536Z,14.46
2023-03-06T21:53:34.643Z,14.27
2023-03-06T21:56:06.706Z,14.22
2023-03-06T21:58:39.443Z,14.43
2023-03-06T22:01:17.659Z,14.08
2023-03-06T22:03:49.366Z,14.04
2023-03-06T22:06:24.398Z,14.39
2023-03-06T22:08:58.018Z,14.25
2023-03-06T22:11:30.266Z,14.04
2023-03-06T22:14:01.855Z,14.68
2023-03-06T22:16:33.684Z,13.63
2023-03-06T22:19:08.388Z,13.98
2023-03-06T22:21:39.925Z,13.97
2023-03-06T22:24:11.558Z,14.08
2023-03-06T22:26:43.228Z,14.78
2023-03-06T22:29:14.850Z,13.99
2023-03-06T22:31:46.558Z,13.69
2023-03-06T22:34:18.434Z,14.16
2023-03-06T22:36:49.977Z,14.00
2023-03-06T22:39:21.605Z,14.25
2023-03-06T22:41:56.956Z,13.87
2023-03-06T22:44:28.728Z,14.19
2023-03-06T22:47:00.309Z,14.07
2023-03-06T22:49:32.146Z,13.64
2023-03-06T22:52:03.858Z,14.13
2023-03-06T22:54:35.652Z,13.59
2023-03-06T22:57:07.268Z,13.72
2023-03-06T22:59:39.077Z,13.51
2023-03-06T23:02:10.645Z,13.55
2023-03-06T23:04:42.371Z,14.31
2023-03-06T23:07:14.190Z,13.82
2023-03-06T23:09:46.110Z,13.70
2023-03-06T23:12:36.084Z,13.48
2023-03-06T23:15:26.301Z,13.59
2023-03-06T23:18:16.606Z,14.14
2023-03-06T23:21:12.466Z,13.41
2023-03-06T23:24:02.848Z,14.22
2023-03-06T23:26:34.996Z,13.96
2023-03-06T23:29:06.584Z,13.07
2023-03-06T23:31:38.192Z,13.47
2023-03-06T23:34:09.901Z,13.06
2023-03-06T23:36:41.499Z,13.41
2023-03-06T23:39:13.244Z,13.38
2023-03-06T23:41:44.930Z,13.63
2023-03-06T23:44:16.553Z,13.32
2023-03-06T23:46:48.107Z,13.66
2023-03-06T23:49:21.874Z,13.82
2023-03-06T23:51:53.673Z,13.40
2023-03-06T23:54:25.370Z,13.46
2023-03-06T23:56:56.995Z,13.16
2023-03-06T23:59:28.696Z,13.36
